Terminal Aerodrome Forecast
Issued by NWS Grand Forks, ND

Home | Current Version | Previous Version | Graphics & Text | Print | Product List | Glossary On
Versions: 1 2 3 4 5 6 7 8 9 10 11 12 13
042
FTUS43 KFGF 010520
TAFGFK
TAF
KGFK 010520Z 0106/0206 04007KT P6SM FEW250
     FM011600 01008KT P6SM FEW250
     FM020100 VRB03KT P6SM SKC=

USA.gov is the U.S. government's official web portal to all federal, state and local government web resources and services.